createdAt,value
2019-03-27T00:02:27.743Z,95464.81
2019-03-27T00:04:58.068Z,95455.04
2019-03-27T00:07:28.291Z,95462.84
2019-03-27T00:09:58.609Z,95455.25
2019-03-27T00:12:28.753Z,95454.11
2019-03-27T00:15:12.188Z,95459.77
2019-03-27T00:17:30.951Z,95450.09
2019-03-27T00:20:01.241Z,95446.69
2019-03-27T00:22:31.467Z,95449.36
2019-03-27T00:25:01.597Z,95448.25
2019-03-27T00:27:31.839Z,95446.06
2019-03-27T00:30:02.044Z,95452.45
2019-03-27T00:32:32.263Z,95457.28
2019-03-27T00:35:02.576Z,95456.98
2019-03-27T00:37:32.755Z,95447.20
2019-03-27T00:40:02.952Z,95450.30
2019-03-27T00:42:33.170Z,95451.83
2019-03-27T00:45:03.476Z,95450.00
2019-03-27T00:47:33.794Z,95453.27
2019-03-27T00:50:04.030Z,95447.92
2019-03-27T00:52:34.272Z,95448.02
2019-03-27T00:55:04.635Z,95443.09
2019-03-27T00:57:34.709Z,95454.43
2019-03-27T01:00:05.647Z,95449.08
2019-03-27T01:02:35.874Z,95456.06
2019-03-27T01:05:06.468Z,95456.69
2019-03-27T01:07:36.702Z,95460.38
2019-03-27T01:10:06.873Z,95459.67
2019-03-27T01:12:37.117Z,95462.75
2019-03-27T01:15:07.397Z,95464.17
2019-03-27T01:17:37.606Z,95456.36
2019-03-27T01:20:07.766Z,95461.20
2019-03-27T01:22:38.062Z,95463.17
2019-03-27T01:25:08.294Z,95468.81
2019-03-27T01:27:38.558Z,95470.06
2019-03-27T01:30:08.744Z,95470.78
2019-03-27T01:32:39.031Z,95472.01
2019-03-27T01:35:09.304Z,95469.53
2019-03-27T01:37:39.508Z,95473.45
2019-03-27T01:40:10.025Z,95476.75
2019-03-27T01:42:40.331Z,95483.00
2019-03-27T01:45:10.473Z,95479.63
2019-03-27T01:47:40.799Z,95480.86
2019-03-27T01:50:11.111Z,95483.64
2019-03-27T01:52:41.257Z,95488.66
2019-03-27T01:55:12.867Z,95496.88
2019-03-27T01:57:43.026Z,95491.33
2019-03-27T02:00:13.328Z,95493.71
2019-03-27T02:02:43.556Z,95491.25
2019-03-27T02:07:42.499Z,95491.33
2019-03-27T02:10:12.712Z,95494.02
2019-03-27T02:15:11.802Z,95499.47
2019-03-27T02:17:41.961Z,95501.11
2019-03-27T02:20:12.187Z,95505.75
2019-03-27T02:22:42.426Z,95502.77
2019-03-27T02:25:12.694Z,95503.08
2019-03-27T02:27:43.018Z,95504.11
2019-03-27T02:30:13.343Z,95501.73
2019-03-27T02:32:43.599Z,95505.75
2019-03-27T02:35:13.832Z,95513.47
2019-03-27T02:37:44.145Z,95506.58
2019-03-27T02:40:17.165Z,95512.55
2019-03-27T02:42:47.433Z,95516.63
2019-03-27T02:45:17.672Z,95519.53
2019-03-27T02:47:48.853Z,95523.42
2019-03-27T02:50:19.119Z,95528.48
2019-03-27T02:52:49.264Z,95524.58
2019-03-27T02:55:20.493Z,95534.23
2019-03-27T02:57:50.716Z,95528.16
2019-03-27T03:00:20.966Z,95532.60
2019-03-27T03:02:51.216Z,95535.16
2019-03-27T03:05:21.414Z,95530.94
2019-03-27T03:07:51.709Z,95534.42
2019-03-27T03:10:22.039Z,95535.27
2019-03-27T03:12:52.126Z,95539.99
2019-03-27T03:15:22.831Z,95543.78
2019-03-27T03:17:53.083Z,95544.01
2019-03-27T03:20:23.258Z,95549.34
2019-03-27T03:22:53.528Z,95551.42
2019-03-27T03:25:23.776Z,95548.94
2019-03-27T03:27:54.108Z,95548.64
2019-03-27T03:30:24.277Z,95558.60
2019-03-27T03:32:54.490Z,95549.23
2019-03-27T03:35:24.824Z,95551.81
2019-03-27T03:37:55.107Z,95548.31
2019-03-27T03:42:54.106Z,95554.51
2019-03-27T03:45:24.248Z,95556.66
2019-03-27T03:47:54.488Z,95562.42
2019-03-27T03:50:37.485Z,95556.15
2019-03-27T03:53:09.115Z,95563.95
2019-03-27T03:55:39.516Z,95572.08
2019-03-27T03:58:11.670Z,95575.88
2019-03-27T04:00:42.054Z,95570.12
2019-03-27T04:03:12.381Z,95576.91
2019-03-27T04:05:42.631Z,95581.44
2019-03-27T04:08:12.978Z,95586.16
2019-03-27T04:10:43.261Z,95585.45
2019-03-27T04:13:13.593Z,95583.08
2019-03-27T04:15:43.878Z,95591.20
2019-03-27T04:18:14.054Z,95590.80
2019-03-27T04:20:44.287Z,95590.88
2019-03-27T04:23:14.599Z,95592.44
2019-03-27T04:26:08.437Z,95595.00
2019-03-27T04:28:16.959Z,95598.48
2019-03-27T04:30:47.244Z,95598.41
2019-03-27T04:33:17.539Z,95595.22
2019-03-27T04:35:47.780Z,95590.80
2019-03-27T04:38:17.993Z,95599.64
2019-03-27T04:40:48.273Z,95600.75
2019-03-27T04:43:18.505Z,95602.09
2019-03-27T04:45:48.975Z,95613.94
2019-03-27T04:48:19.206Z,95611.56
2019-03-27T04:50:49.398Z,95614.87
2019-03-27T04:53:19.635Z,95619.88
2019-03-27T04:55:49.923Z,95624.41
2019-03-27T04:58:20.279Z,95625.67
2019-03-27T05:00:51.602Z,95630.27
2019-03-27T05:03:21.891Z,95630.69
2019-03-27T05:05:52.188Z,95640.64
2019-03-27T05:08:22.483Z,95636.31
2019-03-27T05:10:52.723Z,95637.42
2019-03-27T05:13:22.951Z,95639.80
2019-03-27T05:15:53.170Z,95648.22
2019-03-27T05:18:23.402Z,95647.48
2019-03-27T05:20:53.689Z,95649.45
2019-03-27T05:23:23.920Z,95648.94
2019-03-27T05:25:54.164Z,95654.91
2019-03-27T05:28:24.396Z,95652.83
2019-03-27T05:30:54.710Z,95655.63
2019-03-27T05:33:25.024Z,95656.02
2019-03-27T05:35:55.335Z,95660.84
2019-03-27T05:38:25.489Z,95662.41
2019-03-27T05:40:55.712Z,95664.25
2019-03-27T05:43:25.980Z,95669.30
2019-03-27T05:45:56.671Z,95676.67
2019-03-27T05:48:26.900Z,95678.16
2019-03-27T05:50:57.303Z,95672.37
2019-03-27T05:53:27.609Z,95676.07
2019-03-27T05:55:57.573Z,95672.51
2019-03-27T05:58:27.904Z,95678.36
2019-03-27T06:00:58.242Z,95680.13
2019-03-27T06:03:28.434Z,95682.38
2019-03-27T06:05:58.738Z,95672.04
2019-03-27T06:08:29.151Z,95681.89
2019-03-27T06:10:59.323Z,95681.69
2019-03-27T06:13:29.529Z,95680.50
2019-03-27T06:15:59.764Z,95680.00
2019-03-27T06:18:30.047Z,95683.44
2019-03-27T06:21:00.383Z,95685.66
2019-03-27T06:23:30.630Z,95690.78
2019-03-27T06:26:00.850Z,95692.28
2019-03-27T06:28:31.065Z,95693.51
2019-03-27T06:31:01.269Z,95693.52
2019-03-27T06:33:31.594Z,95697.13
2019-03-27T06:36:01.790Z,95694.33
2019-03-27T06:38:31.961Z,95694.09
2019-03-27T06:41:01.950Z,95695.28
2019-03-27T06:43:32.075Z,95693.74
2019-03-27T06:46:02.343Z,95692.80
2019-03-27T06:48:32.544Z,95703.19
2019-03-27T06:51:02.762Z,95695.59
2019-03-27T06:53:33.080Z,95697.05
2019-03-27T06:56:03.400Z,95699.91
2019-03-27T06:58:33.557Z,95697.84
2019-03-27T07:01:03.748Z,95695.59
2019-03-27T07:03:34.094Z,95696.30
2019-03-27T07:06:04.492Z,95702.09
2019-03-27T07:08:34.838Z,95700.94
2019-03-27T07:11:05.242Z,95700.94
2019-03-27T07:13:35.649Z,95697.63
2019-03-27T07:16:05.914Z,95699.60
2019-03-27T07:18:40.468Z,95701.76
2019-03-27T07:21:08.212Z,95700.52
2019-03-27T07:23:38.507Z,95702.16
2019-03-27T07:26:08.726Z,95706.59
2019-03-27T07:28:38.963Z,95707.55
2019-03-27T07:31:09.276Z,95703.73
2019-03-27T07:33:39.545Z,95705.37
2019-03-27T07:36:09.846Z,95699.91
2019-03-27T07:38:40.088Z,95696.63
2019-03-27T07:41:10.374Z,95691.82
2019-03-27T07:43:40.914Z,95701.17
2019-03-27T07:46:11.330Z,95700.88
2019-03-27T07:48:53.334Z,95702.14
2019-03-27T07:51:13.722Z,95699.17
2019-03-27T07:53:43.972Z,95704.42
2019-03-27T07:56:14.215Z,95704.82
2019-03-27T07:58:44.434Z,95702.45
2019-03-27T08:01:14.737Z,95702.00
2019-03-27T08:03:45.036Z,95704.00
2019-03-27T08:06:15.376Z,95706.67
2019-03-27T08:08:45.629Z,95711.62
2019-03-27T08:11:15.870Z,95710.28
2019-03-27T08:13:46.164Z,95710.80
2019-03-27T08:16:16.495Z,95707.02
2019-03-27T08:18:46.784Z,95708.64
2019-03-27T08:21:17.019Z,95712.67
2019-03-27T08:23:47.261Z,95711.97
2019-03-27T08:26:17.497Z,95712.45
2019-03-27T08:28:47.782Z,95716.05
2019-03-27T08:31:18.152Z,95713.07
2019-03-27T08:33:48.453Z,95716.28
2019-03-27T08:36:18.677Z,95720.69
2019-03-27T08:38:48.948Z,95714.83
2019-03-27T08:41:19.128Z,95718.67
2019-03-27T08:43:49.435Z,95711.40
2019-03-27T08:46:19.750Z,95705.16
2019-03-27T08:48:49.897Z,95704.69
2019-03-27T08:51:20.107Z,95707.07
2019-03-27T08:53:50.343Z,95711.52
2019-03-27T08:56:20.668Z,95713.46
2019-03-27T08:58:50.973Z,95714.69
2019-03-27T09:01:21.292Z,95701.36
2019-03-27T09:03:51.537Z,95710.72
2019-03-27T09:06:33.095Z,95704.00
2019-03-27T09:08:53.732Z,95704.95
2019-03-27T09:11:23.946Z,95710.03
2019-03-27T09:13:54.264Z,95699.92
2019-03-27T09:16:24.573Z,95702.96
2019-03-27T09:18:54.744Z,95698.73
2019-03-27T09:21:24.943Z,95688.24
2019-03-27T09:23:55.170Z,95701.02
2019-03-27T09:26:25.468Z,95696.70
2019-03-27T09:28:55.797Z,95692.78
2019-03-27T09:31:26.057Z,95699.22
2019-03-27T09:33:56.302Z,95702.06
2019-03-27T09:36:26.486Z,95692.50
2019-03-27T09:38:56.788Z,95696.59
2019-03-27T09:41:27.120Z,95696.09
2019-03-27T09:43:57.359Z,95691.58
2019-03-27T09:46:27.692Z,95694.27
2019-03-27T09:48:57.890Z,95697.09
2019-03-27T09:51:28.212Z,95691.06
2019-03-27T09:53:58.422Z,95688.05
2019-03-27T09:56:28.585Z,95689.14
2019-03-27T09:58:58.807Z,95688.36
2019-03-27T10:01:29.037Z,95696.20
2019-03-27T10:03:59.254Z,95679.70
2019-03-27T10:06:29.550Z,95677.39
2019-03-27T10:08:59.868Z,95680.30
2019-03-27T10:11:30.070Z,95673.33
2019-03-27T10:14:00.346Z,95667.92
2019-03-27T10:16:30.671Z,95664.95
2019-03-27T10:19:00.976Z,95663.23
2019-03-27T10:21:31.289Z,95664.48
2019-03-27T10:24:01.728Z,95656.36
2019-03-27T10:26:32.019Z,95660.16
2019-03-27T10:29:02.200Z,95652.67
2019-03-27T10:31:32.426Z,95663.03
2019-03-27T10:34:02.724Z,95627.80
2019-03-27T10:36:32.726Z,95621.62
2019-03-27T10:39:02.982Z,95618.30
2019-03-27T10:41:33.207Z,95617.13
2019-03-27T10:44:03.440Z,95609.49
2019-03-27T10:46:33.726Z,95613.27
2019-03-27T10:49:03.874Z,95611.23
2019-03-27T10:51:34.300Z,95610.09
2019-03-27T10:54:04.678Z,95615.41
2019-03-27T10:56:34.778Z,95609.06
2019-03-27T10:59:05.045Z,95602.46
2019-03-27T11:01:35.276Z,95596.92
2019-03-27T11:04:05.598Z,95590.66
2019-03-27T11:06:35.754Z,95590.25
2019-03-27T11:09:08.675Z,95587.50
2019-03-27T11:11:39.039Z,95586.05
2019-03-27T11:14:09.352Z,95597.16
2019-03-27T11:16:39.519Z,95600.56
2019-03-27T11:19:09.833Z,95601.75
2019-03-27T11:21:39.994Z,95597.43
2019-03-27T11:24:10.242Z,95601.82
2019-03-27T11:26:40.575Z,95590.16
2019-03-27T11:29:10.829Z,95593.31
2019-03-27T11:31:41.052Z,95588.18
2019-03-27T11:34:11.261Z,95585.91
2019-03-27T11:36:41.571Z,95587.25
2019-03-27T11:39:11.828Z,95579.28
2019-03-27T11:41:42.121Z,95577.47
2019-03-27T11:44:12.846Z,95574.16
2019-03-27T11:46:43.011Z,95573.28
2019-03-27T11:49:13.220Z,95575.66
2019-03-27T11:51:43.493Z,95570.60
2019-03-27T11:54:13.768Z,95572.76
2019-03-27T11:56:44.123Z,95557.35
2019-03-27T11:59:14.481Z,95557.56
2019-03-27T12:01:44.635Z,95550.36
2019-03-27T12:04:14.877Z,95550.98
2019-03-27T12:06:45.077Z,95553.99
2019-03-27T12:09:15.429Z,95548.83
2019-03-27T12:11:45.702Z,95546.16
2019-03-27T12:14:16.037Z,95553.58
2019-03-27T12:16:46.190Z,95547.41
2019-03-27T12:19:16.441Z,95545.36
2019-03-27T12:21:46.692Z,95549.97
2019-03-27T12:24:16.937Z,95543.61
2019-03-27T12:26:47.380Z,95521.80
2019-03-27T12:29:18.300Z,95526.82
2019-03-27T12:31:48.637Z,95523.55
2019-03-27T12:34:18.946Z,95522.51
2019-03-27T12:36:49.267Z,95512.44
2019-03-27T12:39:19.420Z,95512.02
2019-03-27T12:41:49.570Z,95508.30
2019-03-27T12:44:19.696Z,95508.41
2019-03-27T12:46:51.810Z,95508.61
2019-03-27T12:49:22.119Z,95509.85
2019-03-27T12:51:52.284Z,95502.64
2019-03-27T12:54:22.607Z,95501.60
2019-03-27T12:56:52.826Z,95500.08
2019-03-27T12:59:23.118Z,95503.56
2019-03-27T13:01:53.453Z,95500.17
2019-03-27T13:04:23.767Z,95500.70
2019-03-27T13:06:53.921Z,95494.30
2019-03-27T13:09:24.153Z,95496.45
2019-03-27T13:11:54.365Z,95494.59
2019-03-27T13:14:24.661Z,95495.45
2019-03-27T13:16:54.890Z,95493.89
2019-03-27T13:19:25.169Z,95494.70
2019-03-27T13:21:55.541Z,95490.50
2019-03-27T13:24:25.924Z,95508.30
2019-03-27T13:26:56.122Z,95508.60
2019-03-27T13:29:26.412Z,95510.45
2019-03-27T13:31:56.733Z,95509.94
2019-03-27T13:34:26.889Z,95506.97
2019-03-27T13:36:57.201Z,95499.95
2019-03-27T13:39:27.444Z,95500.90
2019-03-27T13:41:57.655Z,95509.23
2019-03-27T13:44:36.813Z,95509.23
2019-03-27T13:47:00.160Z,95510.98
2019-03-27T13:49:30.561Z,95516.34
2019-03-27T13:52:00.807Z,95513.77
2019-03-27T13:54:31.044Z,95509.46
2019-03-27T13:57:01.248Z,95511.37
2019-03-27T13:59:31.552Z,95511.19
2019-03-27T14:02:01.888Z,95507.50
2019-03-27T14:04:32.246Z,95518.20
2019-03-27T14:07:02.445Z,95519.02
2019-03-27T14:09:32.689Z,95518.59
2019-03-27T14:12:02.888Z,95515.60
2019-03-27T14:14:33.296Z,95513.78
2019-03-27T14:17:03.617Z,95512.72
2019-03-27T14:19:33.946Z,95510.88
2019-03-27T14:22:04.189Z,95511.99
2019-03-27T14:24:34.559Z,95514.47
2019-03-27T14:27:04.854Z,95516.95
2019-03-27T14:29:35.062Z,95513.23
2019-03-27T14:32:05.443Z,95514.05
2019-03-27T14:34:35.691Z,95516.33
2019-03-27T14:37:05.963Z,95516.63
2019-03-27T14:39:36.160Z,95522.50
2019-03-27T14:42:06.384Z,95521.04
2019-03-27T14:44:36.684Z,95525.47
2019-03-27T14:47:07.012Z,95527.13
2019-03-27T14:49:37.784Z,95521.45
2019-03-27T14:52:08.749Z,95526.52
2019-03-27T14:54:39.030Z,95530.62
2019-03-27T14:57:09.443Z,95528.14
2019-03-27T14:59:39.761Z,95528.77
2019-03-27T15:02:09.987Z,95531.67
2019-03-27T15:04:40.235Z,95534.94
2019-03-27T15:07:10.463Z,95533.08
2019-03-27T15:09:40.650Z,95531.45
2019-03-27T15:12:10.883Z,95533.30
2019-03-27T15:14:41.133Z,95532.27
2019-03-27T15:17:11.341Z,95537.31
2019-03-27T15:19:41.570Z,95536.27
2019-03-27T15:22:21.859Z,95541.03
2019-03-27T15:24:43.766Z,95540.52
2019-03-27T15:27:14.102Z,95539.37
2019-03-27T15:29:44.524Z,95546.28
2019-03-27T15:32:14.738Z,95539.17
2019-03-27T15:34:44.960Z,95540.93
2019-03-27T15:37:15.257Z,95550.39
2019-03-27T15:39:45.495Z,95551.73
2019-03-27T15:42:15.729Z,95552.45
2019-03-27T15:44:45.953Z,95550.78
2019-03-27T15:47:17.880Z,95555.64
2019-03-27T15:49:48.323Z,95557.47
2019-03-27T15:52:18.741Z,95553.45
2019-03-27T15:54:49.077Z,95556.98
2019-03-27T15:57:19.404Z,95561.00
2019-03-27T15:59:49.763Z,95569.02
2019-03-27T16:02:19.974Z,95572.41
2019-03-27T16:04:50.197Z,95575.60
2019-03-27T16:07:20.665Z,95577.13
2019-03-27T16:09:51.027Z,95575.17
2019-03-27T16:12:21.354Z,95578.98
2019-03-27T16:14:51.668Z,95560.66
2019-03-27T16:17:21.819Z,95572.52
2019-03-27T16:19:52.043Z,95564.68
2019-03-27T16:22:22.276Z,95569.52
2019-03-27T16:24:52.692Z,95577.34
2019-03-27T16:27:24.062Z,95573.95
2019-03-27T16:29:54.267Z,95573.44
2019-03-27T16:32:24.491Z,95582.50
2019-03-27T16:34:54.780Z,95587.23
2019-03-27T16:37:25.121Z,95594.02
2019-03-27T16:39:55.356Z,95594.44
2019-03-27T16:42:25.602Z,95602.34
2019-03-27T16:44:55.876Z,95593.20
2019-03-27T16:47:26.174Z,95597.81
2019-03-27T16:49:56.347Z,95603.69
2019-03-27T16:52:26.568Z,95604.62
2019-03-27T16:54:56.803Z,95613.98
2019-03-27T16:57:27.097Z,95616.66
2019-03-27T16:59:57.737Z,95618.19
2019-03-27T17:02:28.059Z,95628.38
2019-03-27T17:04:58.307Z,95629.82
2019-03-27T17:07:28.622Z,95632.98
2019-03-27T17:09:58.944Z,95635.77
2019-03-27T17:12:31.451Z,95650.52
2019-03-27T17:15:01.219Z,95660.09
2019-03-27T17:17:31.465Z,95674.45
2019-03-27T17:20:01.461Z,95684.97
2019-03-27T17:22:31.681Z,95687.04
2019-03-27T17:25:01.919Z,95699.19
2019-03-27T17:27:32.150Z,95695.47
2019-03-27T17:30:02.610Z,95705.36
2019-03-27T17:32:32.797Z,95705.14
2019-03-27T17:35:03.208Z,95707.59
2019-03-27T17:37:33.527Z,95705.95
2019-03-27T17:40:03.992Z,95714.62
2019-03-27T17:42:34.211Z,95719.15
2019-03-27T17:45:04.429Z,95722.53
2019-03-27T17:47:34.675Z,95731.70
2019-03-27T17:50:05.065Z,95738.58
2019-03-27T17:52:38.229Z,95738.91
2019-03-27T17:55:07.457Z,95746.02
2019-03-27T17:57:37.776Z,95749.33
2019-03-27T18:00:09.780Z,95755.16
2019-03-27T18:02:40.045Z,95757.31
2019-03-27T18:05:10.220Z,95761.77
2019-03-27T18:07:40.415Z,95764.81
2019-03-27T18:10:10.836Z,95776.56
2019-03-27T18:12:41.181Z,95779.75
2019-03-27T18:15:11.422Z,95788.13
2019-03-27T18:17:41.638Z,95790.80
2019-03-27T18:20:11.857Z,95789.42
2019-03-27T18:22:42.150Z,95792.31
2019-03-27T18:25:12.486Z,95792.84
2019-03-27T18:27:42.801Z,95793.80
2019-03-27T18:30:13.056Z,95792.47
2019-03-27T18:32:43.274Z,95792.95
2019-03-27T18:35:13.515Z,95797.97
2019-03-27T18:37:43.903Z,95804.51
2019-03-27T18:40:14.235Z,95800.49
2019-03-27T18:42:44.548Z,95804.66
2019-03-27T18:45:14.752Z,95810.87
2019-03-27T18:47:44.903Z,95804.36
2019-03-27T18:50:15.149Z,95805.40
2019-03-27T18:52:45.449Z,95809.72
2019-03-27T18:55:25.702Z,95806.73
2019-03-27T18:57:59.348Z,95799.72
2019-03-27T19:00:20.363Z,95801.27
2019-03-27T19:02:50.741Z,95799.94
2019-03-27T19:05:21.136Z,95796.73
2019-03-27T19:07:51.522Z,95805.98
2019-03-27T19:10:21.767Z,95805.45
2019-03-27T19:12:51.969Z,95805.58
2019-03-27T19:15:22.187Z,95807.73
2019-03-27T19:17:52.449Z,95805.23
2019-03-27T19:20:22.708Z,95808.44
2019-03-27T19:22:52.984Z,95813.37
2019-03-27T19:25:23.208Z,95807.83
2019-03-27T19:27:53.404Z,95815.52
2019-03-27T19:30:23.706Z,95816.69
2019-03-27T19:32:54.079Z,95819.59
2019-03-27T19:35:24.372Z,95822.91
2019-03-27T19:37:54.591Z,95826.59
2019-03-27T19:40:24.933Z,95823.48
2019-03-27T19:42:55.172Z,95822.46
2019-03-27T19:45:25.375Z,95821.86
2019-03-27T19:47:55.664Z,95818.43
2019-03-27T19:50:25.912Z,95824.81
2019-03-27T19:52:56.140Z,95821.48
2019-03-27T19:55:26.372Z,95828.25
2019-03-27T19:57:56.892Z,95828.72
2019-03-27T20:00:27.123Z,95830.48
2019-03-27T20:02:57.418Z,95822.40
2019-03-27T20:05:27.748Z,95819.30
2019-03-27T20:07:58.004Z,95821.62
2019-03-27T20:10:28.323Z,95827.97
2019-03-27T20:12:58.637Z,95825.39
2019-03-27T20:15:28.666Z,95831.19
2019-03-27T20:17:58.619Z,95839.33
2019-03-27T20:20:28.917Z,95839.48
2019-03-27T20:22:59.229Z,95835.08
2019-03-27T20:25:29.519Z,95831.77
2019-03-27T20:27:59.859Z,95832.30
2019-03-27T20:30:30.097Z,95840.20
2019-03-27T20:33:00.329Z,95843.40
2019-03-27T20:35:30.641Z,95845.47
2019-03-27T20:38:00.878Z,95849.96
2019-03-27T20:40:31.161Z,95852.34
2019-03-27T20:43:01.412Z,95854.89
2019-03-27T20:45:31.743Z,95854.89
2019-03-27T20:48:01.977Z,95854.89
2019-03-27T20:50:32.182Z,95856.92
2019-03-27T20:53:02.534Z,95869.30
2019-03-27T20:55:32.814Z,95876.28
2019-03-27T20:58:03.060Z,95875.03
2019-03-27T21:00:33.460Z,95876.98
2019-03-27T21:03:04.209Z,95879.23
2019-03-27T21:05:35.304Z,95878.92
2019-03-27T21:08:05.662Z,95883.23
2019-03-27T21:10:35.765Z,95882.93
2019-03-27T21:13:05.957Z,95880.44
2019-03-27T21:15:38.658Z,95882.81
2019-03-27T21:18:08.227Z,95885.61
2019-03-27T21:20:38.458Z,95882.93
2019-03-27T21:23:08.744Z,95882.17
2019-03-27T21:25:39.000Z,95887.64
2019-03-27T21:28:09.325Z,95888.58
2019-03-27T21:30:39.555Z,95889.28
2019-03-27T21:33:09.775Z,95890.13
2019-03-27T21:35:40.072Z,95892.81
2019-03-27T21:38:10.385Z,95890.53
2019-03-27T21:40:40.570Z,95892.69
2019-03-27T21:43:10.798Z,95895.23
2019-03-27T21:45:40.982Z,95895.54
2019-03-27T21:48:11.287Z,95898.55
2019-03-27T21:50:41.601Z,95899.94
2019-03-27T21:53:11.764Z,95897.27
2019-03-27T21:55:43.168Z,95897.91
2019-03-27T21:58:13.538Z,95896.62
2019-03-27T22:00:43.827Z,95897.66
2019-03-27T22:03:14.164Z,95900.16
2019-03-27T22:05:44.416Z,95896.45
2019-03-27T22:08:14.643Z,95905.68
2019-03-27T22:10:44.867Z,95907.02
2019-03-27T22:13:15.181Z,95904.34
2019-03-27T22:15:45.475Z,95907.72
2019-03-27T22:18:15.708Z,95901.36
2019-03-27T22:20:46.000Z,95902.37
2019-03-27T22:23:16.180Z,95908.17
2019-03-27T22:25:46.291Z,95902.37
2019-03-27T22:28:16.596Z,95902.37
2019-03-27T22:30:47.018Z,95907.11
2019-03-27T22:33:17.387Z,95913.88
2019-03-27T22:35:47.586Z,95914.09
2019-03-27T22:38:17.822Z,95920.69
2019-03-27T22:40:48.044Z,95918.41
2019-03-27T22:43:18.331Z,95927.64
2019-03-27T22:45:48.567Z,95922.80
2019-03-27T22:48:18.799Z,95929.70
2019-03-27T22:50:49.032Z,95927.02
2019-03-27T22:53:19.260Z,95922.29
2019-03-27T22:55:50.638Z,95924.66
2019-03-27T22:58:20.813Z,95928.36
2019-03-27T23:00:52.148Z,95933.38
2019-03-27T23:03:22.368Z,95935.56
2019-03-27T23:05:52.589Z,95938.54
2019-03-27T23:08:22.737Z,95938.41
2019-03-27T23:10:52.959Z,95935.09
2019-03-27T23:13:23.264Z,95936.44
2019-03-27T23:15:53.496Z,95938.28
2019-03-27T23:18:23.735Z,95939.83
2019-03-27T23:20:53.954Z,95948.33
2019-03-27T23:23:24.176Z,95947.84
2019-03-27T23:26:03.003Z,95950.70
2019-03-27T23:28:26.449Z,95948.55
2019-03-27T23:30:56.728Z,95943.84
2019-03-27T23:33:26.914Z,95940.14
2019-03-27T23:35:57.137Z,95943.76
2019-03-27T23:38:27.368Z,95941.66
2019-03-27T23:40:57.663Z,95947.34
2019-03-27T23:43:27.887Z,95943.34
2019-03-27T23:45:58.016Z,95946.84
2019-03-27T23:48:28.256Z,95948.08
2019-03-27T23:50:58.473Z,95951.58
2019-03-27T23:53:28.777Z,95940.06
2019-03-27T23:55:59.101Z,95939.73
2019-03-27T23:58:29.249Z,95947.05
